sensor_id;sensor_type;location;lat;lon;timestamp;temperature;humidity
9223;DHT22;7557;51.698;3.942;2022-08-21T00:01:25;19.00;99.90
9223;DHT22;7557;51.698;3.942;2022-08-21T00:03:53;19.10;99.90
9223;DHT22;7557;51.698;3.942;2022-08-21T00:06:22;19.10;99.90
9223;DHT22;7557;51.698;3.942;2022-08-21T00:08:50;19.10;99.90
9223;DHT22;7557;51.698;3.942;2022-08-21T00:11:17;19.00;99.90
9223;DHT22;7557;51.698;3.942;2022-08-21T00:13:45;19.00;99.90
9223;DHT22;7557;51.698;3.942;2022-08-21T00:16:12;19.00;99.90
9223;DHT22;7557;51.698;3.942;2022-08-21T00:18:39;19.10;99.90
9223;DHT22;7557;51.698;3.942;2022-08-21T00:21:07;19.10;99.90
9223;DHT22;7557;51.698;3.942;2022-08-21T00:23:36;19.10;99.90
9223;DHT22;7557;51.698;3.942;2022-08-21T00:26:03;19.10;99.90
9223;DHT22;7557;51.698;3.942;2022-08-21T00:28:31;19.00;99.90
9223;DHT22;7557;51.698;3.942;2022-08-21T00:30:59;18.90;99.90
9223;DHT22;7557;51.698;3.942;2022-08-21T00:33:29;18.90;99.90
9223;DHT22;7557;51.698;3.942;2022-08-21T00:35:57;18.90;99.90
9223;DHT22;7557;51.698;3.942;2022-08-21T00:38:24;19.00;99.90
9223;DHT22;7557;51.698;3.942;2022-08-21T00:40:55;19.10;99.90
9223;DHT22;7557;51.698;3.942;2022-08-21T00:43:25;19.20;99.90
9223;DHT22;7557;51.698;3.942;2022-08-21T00:45:54;19.30;99.90
9223;DHT22;7557;51.698;3.942;2022-08-21T00:48:22;19.30;99.90
9223;DHT22;7557;51.698;3.942;2022-08-21T00:50:53;19.30;99.90
9223;DHT22;7557;51.698;3.942;2022-08-21T00:53:22;19.30;99.90
9223;DHT22;7557;51.698;3.942;2022-08-21T00:55:51;19.20;99.90
9223;DHT22;7557;51.698;3.942;2022-08-21T00:58:21;19.20;99.90
9223;DHT22;7557;51.698;3.942;2022-08-21T01:00:50;19.10;99.90
9223;DHT22;7557;51.698;3.942;2022-08-21T01:03:21;19.00;99.90
9223;DHT22;7557;51.698;3.942;2022-08-21T01:05:50;18.90;99.90
9223;DHT22;7557;51.698;3.942;2022-08-21T01:08:18;18.80;99.90
9223;DHT22;7557;51.698;3.942;2022-08-21T01:10:46;18.80;99.90
9223;DHT22;7557;51.698;3.942;2022-08-21T01:13:16;18.80;99.90
9223;DHT22;7557;51.698;3.942;2022-08-21T01:15:48;18.70;99.90
9223;DHT22;7557;51.698;3.942;2022-08-21T01:18:18;18.80;99.90
9223;DHT22;7557;51.698;3.942;2022-08-21T01:21:00;18.70;99.90
9223;DHT22;7557;51.698;3.942;2022-08-21T01:23:28;18.80;99.90
9223;DHT22;7557;51.698;3.942;2022-08-21T01:25:55;18.70;99.90
9223;DHT22;7557;51.698;3.942;2022-08-21T01:28:23;18.60;99.90
9223;DHT22;7557;51.698;3.942;2022-08-21T01:30:51;18.60;99.90
9223;DHT22;7557;51.698;3.942;2022-08-21T01:33:20;18.60;99.90
9223;DHT22;7557;51.698;3.942;2022-08-21T01:35:48;18.60;99.90
9223;DHT22;7557;51.698;3.942;2022-08-21T01:38:17;18.60;99.90
9223;DHT22;7557;51.698;3.942;2022-08-21T01:40:44;18.60;99.90
9223;DHT22;7557;51.698;3.942;2022-08-21T01:43:12;18.50;99.90
9223;DHT22;7557;51.698;3.942;2022-08-21T01:45:39;18.50;99.90
9223;DHT22;7557;51.698;3.942;2022-08-21T01:48:06;18.50;99.90
9223;DHT22;7557;51.698;3.942;2022-08-21T01:50:34;18.50;99.90
9223;DHT22;7557;51.698;3.942;2022-08-21T01:53:01;18.40;99.90
9223;DHT22;7557;51.698;3.942;2022-08-21T01:55:30;18.30;99.90
9223;DHT22;7557;51.698;3.942;2022-08-21T01:57:59;18.30;99.90
9223;DHT22;7557;51.698;3.942;2022-08-21T02:00:27;18.30;99.90
9223;DHT22;7557;51.698;3.942;2022-08-21T02:02:54;18.30;99.90
9223;DHT22;7557;51.698;3.942;2022-08-21T02:05:21;18.30;99.90
9223;DHT22;7557;51.698;3.942;2022-08-21T02:07:54;18.30;99.90
9223;DHT22;7557;51.698;3.942;2022-08-21T02:10:25;18.30;99.90
9223;DHT22;7557;51.698;3.942;2022-08-21T02:12:55;18.30;99.90
9223;DHT22;7557;51.698;3.942;2022-08-21T02:15:22;18.30;99.90
9223;DHT22;7557;51.698;3.942;2022-08-21T02:17:53;18.30;99.90
9223;DHT22;7557;51.698;3.942;2022-08-21T02:20:23;18.30;99.90
9223;DHT22;7557;51.698;3.942;2022-08-21T02:22:51;18.30;99.90
9223;DHT22;7557;51.698;3.942;2022-08-21T02:25:20;18.20;99.90
9223;DHT22;7557;51.698;3.942;2022-08-21T02:27:48;18.30;99.90
9223;DHT22;7557;51.698;3.942;2022-08-21T02:30:18;18.30;99.90
9223;DHT22;7557;51.698;3.942;2022-08-21T02:32:46;18.40;99.90
9223;DHT22;7557;51.698;3.942;2022-08-21T02:35:14;18.40;99.90
9223;DHT22;7557;51.698;3.942;2022-08-21T02:37:47;18.40;99.90
9223;DHT22;7557;51.698;3.942;2022-08-21T02:40:16;18.40;99.90
9223;DHT22;7557;51.698;3.942;2022-08-21T02:42:44;18.50;99.90
9223;DHT22;7557;51.698;3.942;2022-08-21T02:45:12;18.50;99.90
9223;DHT22;7557;51.698;3.942;2022-08-21T02:47:47;18.60;99.90
9223;DHT22;7557;51.698;3.942;2022-08-21T02:50:18;18.80;99.90
9223;DHT22;7557;51.698;3.942;2022-08-21T02:52:47;18.90;99.90
9223;DHT22;7557;51.698;3.942;2022-08-21T02:55:15;18.90;99.90
9223;DHT22;7557;51.698;3.942;2022-08-21T02:57:42;18.90;99.90
9223;DHT22;7557;51.698;3.942;2022-08-21T03:00:11;18.90;99.90
9223;DHT22;7557;51.698;3.942;2022-08-21T03:02:41;18.80;99.90
9223;DHT22;7557;51.698;3.942;2022-08-21T03:05:09;18.80;99.90
9223;DHT22;7557;51.698;3.942;2022-08-21T03:07:37;18.70;99.90
9223;DHT22;7557;51.698;3.942;2022-08-21T03:10:05;18.60;99.90
9223;DHT22;7557;51.698;3.942;2022-08-21T03:12:34;18.50;99.90
9223;DHT22;7557;51.698;3.942;2022-08-21T03:15:02;18.50;99.90
9223;DHT22;7557;51.698;3.942;2022-08-21T03:17:30;18.40;99.90
9223;DHT22;7557;51.698;3.942;2022-08-21T03:19:59;18.30;99.90
9223;DHT22;7557;51.698;3.942;2022-08-21T03:22:27;18.30;99.90
9223;DHT22;7557;51.698;3.942;2022-08-21T03:24:54;18.30;99.90
9223;DHT22;7557;51.698;3.942;2022-08-21T03:27:23;18.30;99.90
9223;DHT22;7557;51.698;3.942;2022-08-21T03:29:52;18.40;99.90
9223;DHT22;7557;51.698;3.942;2022-08-21T03:32:20;18.30;99.90
9223;DHT22;7557;51.698;3.942;2022-08-21T03:34:47;18.30;99.90
9223;DHT22;7557;51.698;3.942;2022-08-21T03:37:16;18.20;99.90
9223;DHT22;7557;51.698;3.942;2022-08-21T03:39:43;18.20;99.90
9223;DHT22;7557;51.698;3.942;2022-08-21T03:42:11;18.10;99.90
9223;DHT22;7557;51.698;3.942;2022-08-21T03:44:39;18.00;99.90
9223;DHT22;7557;51.698;3.942;2022-08-21T03:47:06;18.10;99.90
9223;DHT22;7557;51.698;3.942;2022-08-21T03:49:33;18.10;99.90
9223;DHT22;7557;51.698;3.942;2022-08-21T03:52:02;18.10;99.90
9223;DHT22;7557;51.698;3.942;2022-08-21T03:54:31;18.10;99.90
9223;DHT22;7557;51.698;3.942;2022-08-21T03:56:59;18.10;99.90
9223;DHT22;7557;51.698;3.942;2022-08-21T03:59:27;18.10;99.90
9223;DHT22;7557;51.698;3.942;2022-08-21T04:01:55;18.10;99.90
9223;DHT22;7557;51.698;3.942;2022-08-21T04:04:23;18.10;99.90
9223;DHT22;7557;51.698;3.942;2022-08-21T04:06:50;18.00;99.90
9223;DHT22;7557;51.698;3.942;2022-08-21T04:09:18;18.00;99.90
9223;DHT22;7557;51.698;3.942;2022-08-21T04:11:47;18.00;99.90
9223;DHT22;7557;51.698;3.942;2022-08-21T04:14:15;17.90;99.90
9223;DHT22;7557;51.698;3.942;2022-08-21T04:16:43;17.80;99.90
9223;DHT22;7557;51.698;3.942;2022-08-21T04:19:12;17.80;99.90
9223;DHT22;7557;51.698;3.942;2022-08-21T04:21:39;17.80;99.90
9223;DHT22;7557;51.698;3.942;2022-08-21T04:24:08;17.80;99.90
9223;DHT22;7557;51.698;3.942;2022-08-21T04:26:36;17.70;99.90
9223;DHT22;7557;51.698;3.942;2022-08-21T04:29:05;17.60;99.90
9223;DHT22;7557;51.698;3.942;2022-08-21T04:31:34;17.60;99.90
9223;DHT22;7557;51.698;3.942;2022-08-21T04:34:02;17.60;99.90
9223;DHT22;7557;51.698;3.942;2022-08-21T04:36:30;17.60;99.90
9223;DHT22;7557;51.698;3.942;2022-08-21T04:38:58;17.60;99.90
9223;DHT22;7557;51.698;3.942;2022-08-21T04:41:25;17.60;99.90
9223;DHT22;7557;51.698;3.942;2022-08-21T04:43:53;17.70;99.90
9223;DHT22;7557;51.698;3.942;2022-08-21T04:46:22;17.60;99.90
9223;DHT22;7557;51.698;3.942;2022-08-21T04:48:50;17.60;99.90
9223;DHT22;7557;51.698;3.942;2022-08-21T04:51:21;17.60;99.90
9223;DHT22;7557;51.698;3.942;2022-08-21T04:53:52;17.60;99.90
9223;DHT22;7557;51.698;3.942;2022-08-21T04:56:22;17.60;99.90
9223;DHT22;7557;51.698;3.942;2022-08-21T04:58:51;17.60;99.90
9223;DHT22;7557;51.698;3.942;2022-08-21T05:01:23;17.60;99.90
9223;DHT22;7557;51.698;3.942;2022-08-21T05:03:54;17.50;99.90
9223;DHT22;7557;51.698;3.942;2022-08-21T05:06:22;17.60;99.90
9223;DHT22;7557;51.698;3.942;2022-08-21T05:08:52;17.60;99.90
9223;DHT22;7557;51.698;3.942;2022-08-21T05:11:21;17.60;99.90
9223;DHT22;7557;51.698;3.942;2022-08-21T05:13:48;17.60;99.90
9223;DHT22;7557;51.698;3.942;2022-08-21T05:16:16;17.60;99.90
9223;DHT22;7557;51.698;3.942;2022-08-21T05:18:45;17.70;99.90
9223;DHT22;7557;51.698;3.942;2022-08-21T05:21:13;17.70;99.90
9223;DHT22;7557;51.698;3.942;2022-08-21T05:23:40;17.70;99.90
9223;DHT22;7557;51.698;3.942;2022-08-21T05:26:08;17.70;99.90
9223;DHT22;7557;51.698;3.942;2022-08-21T05:28:36;17.70;99.90
9223;DHT22;7557;51.698;3.942;2022-08-21T05:31:03;17.80;99.90
9223;DHT22;7557;51.698;3.942;2022-08-21T05:33:31;17.90;99.90
9223;DHT22;7557;51.698;3.942;2022-08-21T05:36:00;18.00;99.90
9223;DHT22;7557;51.698;3.942;2022-08-21T05:38:27;18.00;99.90
9223;DHT22;7557;51.698;3.942;2022-08-21T05:40:55;18.10;99.90
9223;DHT22;7557;51.698;3.942;2022-08-21T05:43:22;18.20;99.90
9223;DHT22;7557;51.698;3.942;2022-08-21T05:45:49;18.30;99.90
9223;DHT22;7557;51.698;3.942;2022-08-21T05:48:19;18.40;99.90
9223;DHT22;7557;51.698;3.942;2022-08-21T05:50:47;18.50;99.90
9223;DHT22;7557;51.698;3.942;2022-08-21T05:53:18;18.60;99.90
9223;DHT22;7557;51.698;3.942;2022-08-21T05:55:46;18.80;99.90
9223;DHT22;7557;51.698;3.942;2022-08-21T05:58:14;18.90;99.90
9223;DHT22;7557;51.698;3.942;2022-08-21T06:00:42;19.00;99.90
9223;DHT22;7557;51.698;3.942;2022-08-21T06:03:14;19.10;99.90
9223;DHT22;7557;51.698;3.942;2022-08-21T06:05:43;19.30;99.90
9223;DHT22;7557;51.698;3.942;2022-08-21T06:08:11;19.40;99.90
9223;DHT22;7557;51.698;3.942;2022-08-21T06:10:40;19.50;99.90
9223;DHT22;7557;51.698;3.942;2022-08-21T06:13:07;19.60;99.90
9223;DHT22;7557;51.698;3.942;2022-08-21T06:15:35;19.70;99.90
9223;DHT22;7557;51.698;3.942;2022-08-21T06:18:02;19.80;99.90
9223;DHT22;7557;51.698;3.942;2022-08-21T06:20:30;19.90;99.90
9223;DHT22;7557;51.698;3.942;2022-08-21T06:22:57;20.00;99.90
9223;DHT22;7557;51.698;3.942;2022-08-21T06:25:25;20.00;99.90
9223;DHT22;7557;51.698;3.942;2022-08-21T06:28:00;20.00;99.90
9223;DHT22;7557;51.698;3.942;2022-08-21T06:30:27;20.10;99.90
9223;DHT22;7557;51.698;3.942;2022-08-21T06:32:55;20.20;99.90
9223;DHT22;7557;51.698;3.942;2022-08-21T06:35:23;20.30;99.90
9223;DHT22;7557;51.698;3.942;2022-08-21T06:37:51;20.40;99.90
9223;DHT22;7557;51.698;3.942;2022-08-21T06:40:18;20.60;99.90
9223;DHT22;7557;51.698;3.942;2022-08-21T06:42:46;20.60;99.90
9223;DHT22;7557;51.698;3.942;2022-08-21T06:45:15;20.80;99.90
9223;DHT22;7557;51.698;3.942;2022-08-21T06:47:42;20.80;99.90
9223;DHT22;7557;51.698;3.942;2022-08-21T06:50:10;20.80;99.90
9223;DHT22;7557;51.698;3.942;2022-08-21T06:52:38;20.90;99.90
9223;DHT22;7557;51.698;3.942;2022-08-21T06:55:07;21.00;99.90
9223;DHT22;7557;51.698;3.942;2022-08-21T06:57:35;21.10;99.90
9223;DHT22;7557;51.698;3.942;2022-08-21T07:00:04;21.30;99.90
9223;DHT22;7557;51.698;3.942;2022-08-21T07:02:34;21.40;99.90
9223;DHT22;7557;51.698;3.942;2022-08-21T07:05:02;21.50;99.90
9223;DHT22;7557;51.698;3.942;2022-08-21T07:07:30;21.70;99.90
9223;DHT22;7557;51.698;3.942;2022-08-21T07:09:57;21.80;99.90
9223;DHT22;7557;51.698;3.942;2022-08-21T07:12:25;21.90;99.90
9223;DHT22;7557;51.698;3.942;2022-08-21T07:14:52;21.90;99.90
9223;DHT22;7557;51.698;3.942;2022-08-21T07:17:20;22.00;99.90
9223;DHT22;7557;51.698;3.942;2022-08-21T07:19:49;22.20;99.90
9223;DHT22;7557;51.698;3.942;2022-08-21T07:22:19;22.30;99.90
9223;DHT22;7557;51.698;3.942;2022-08-21T07:24:47;22.50;99.90
9223;DHT22;7557;51.698;3.942;2022-08-21T07:27:14;22.60;99.90
9223;DHT22;7557;51.698;3.942;2022-08-21T07:29:42;22.70;99.90
9223;DHT22;7557;51.698;3.942;2022-08-21T07:32:09;22.70;99.90
9223;DHT22;7557;51.698;3.942;2022-08-21T07:34:37;22.70;99.90
9223;DHT22;7557;51.698;3.942;2022-08-21T07:37:05;22.70;99.90
9223;DHT22;7557;51.698;3.942;2022-08-21T07:39:33;22.80;99.90
9223;DHT22;7557;51.698;3.942;2022-08-21T07:42:00;22.80;99.90
9223;DHT22;7557;51.698;3.942;2022-08-21T07:44:28;22.80;99.90
9223;DHT22;7557;51.698;3.942;2022-08-21T07:46:56;22.90;99.90
9223;DHT22;7557;51.698;3.942;2022-08-21T07:49:23;23.00;99.90
9223;DHT22;7557;51.698;3.942;2022-08-21T07:51:50;23.20;99.90
9223;DHT22;7557;51.698;3.942;2022-08-21T07:54:19;23.30;99.90
9223;DHT22;7557;51.698;3.942;2022-08-21T07:56:46;23.30;99.90
9223;DHT22;7557;51.698;3.942;2022-08-21T07:59:13;23.30;99.90
9223;DHT22;7557;51.698;3.942;2022-08-21T08:01:41;23.30;99.90
9223;DHT22;7557;51.698;3.942;2022-08-21T08:04:08;23.30;99.90
9223;DHT22;7557;51.698;3.942;2022-08-21T08:06:35;23.30;99.90
9223;DHT22;7557;51.698;3.942;2022-08-21T08:09:03;23.20;99.90
9223;DHT22;7557;51.698;3.942;2022-08-21T08:11:32;23.20;99.90
9223;DHT22;7557;51.698;3.942;2022-08-21T08:13:59;23.30;99.90
9223;DHT22;7557;51.698;3.942;2022-08-21T08:16:27;23.40;99.90
9223;DHT22;7557;51.698;3.942;2022-08-21T08:18:54;23.40;99.90
9223;DHT22;7557;51.698;3.942;2022-08-21T08:21:22;23.50;99.90
9223;DHT22;7557;51.698;3.942;2022-08-21T08:23:49;23.70;99.90
9223;DHT22;7557;51.698;3.942;2022-08-21T08:26:17;23.80;99.90
9223;DHT22;7557;51.698;3.942;2022-08-21T08:28:46;23.90;99.90
9223;DHT22;7557;51.698;3.942;2022-08-21T08:31:13;24.00;99.90
9223;DHT22;7557;51.698;3.942;2022-08-21T08:33:41;24.20;99.90
9223;DHT22;7557;51.698;3.942;2022-08-21T08:36:13;24.20;99.90
9223;DHT22;7557;51.698;3.942;2022-08-21T08:38:40;24.20;99.90
9223;DHT22;7557;51.698;3.942;2022-08-21T08:41:11;24.10;99.90
9223;DHT22;7557;51.698;3.942;2022-08-21T08:43:40;24.10;99.90
9223;DHT22;7557;51.698;3.942;2022-08-21T08:46:14;24.10;99.90
9223;DHT22;7557;51.698;3.942;2022-08-21T08:48:50;24.10;99.90
9223;DHT22;7557;51.698;3.942;2022-08-21T08:51:22;24.20;99.90
9223;DHT22;7557;51.698;3.942;2022-08-21T08:53:54;24.20;99.90
9223;DHT22;7557;51.698;3.942;2022-08-21T08:56:28;24.30;99.90
9223;DHT22;7557;51.698;3.942;2022-08-21T08:59:00;24.40;99.90
9223;DHT22;7557;51.698;3.942;2022-08-21T09:01:30;24.40;99.90
9223;DHT22;7557;51.698;3.942;2022-08-21T09:03:57;24.40;99.90
9223;DHT22;7557;51.698;3.942;2022-08-21T09:06:50;24.40;99.90
9223;DHT22;7557;51.698;3.942;2022-08-21T09:09:29;24.30;99.90
9223;DHT22;7557;51.698;3.942;2022-08-21T09:12:03;24.00;99.90
9223;DHT22;7557;51.698;3.942;2022-08-21T09:14:46;23.70;99.90
9223;DHT22;7557;51.698;3.942;2022-08-21T09:17:23;23.60;99.90
9223;DHT22;7557;51.698;3.942;2022-08-21T09:20:04;23.50;99.90
9223;DHT22;7557;51.698;3.942;2022-08-21T09:22:43;23.60;99.90
9223;DHT22;7557;51.698;3.942;2022-08-21T09:25:20;23.70;99.90
9223;DHT22;7557;51.698;3.942;2022-08-21T09:27:48;23.80;99.90
9223;DHT22;7557;51.698;3.942;2022-08-21T09:30:16;23.80;99.90
9223;DHT22;7557;51.698;3.942;2022-08-21T09:32:45;23.70;99.40
9223;DHT22;7557;51.698;3.942;2022-08-21T09:35:14;23.60;99.50
9223;DHT22;7557;51.698;3.942;2022-08-21T09:37:50;23.50;99.50
9223;DHT22;7557;51.698;3.942;2022-08-21T09:40:33;23.50;99.80
9223;DHT22;7557;51.698;3.942;2022-08-21T09:43:05;23.50;99.60
9223;DHT22;7557;51.698;3.942;2022-08-21T09:45:33;23.60;99.60
9223;DHT22;7557;51.698;3.942;2022-08-21T09:48:13;23.80;99.20
9223;DHT22;7557;51.698;3.942;2022-08-21T09:50:42;24.00;98.80
9223;DHT22;7557;51.698;3.942;2022-08-21T09:53:17;24.20;98.70
9223;DHT22;7557;51.698;3.942;2022-08-21T09:55:51;24.30;98.70
9223;DHT22;7557;51.698;3.942;2022-08-21T09:58:39;24.40;98.50
9223;DHT22;7557;51.698;3.942;2022-08-21T10:01:14;24.60;98.40
9223;DHT22;7557;51.698;3.942;2022-08-21T10:03:43;24.60;98.30
9223;DHT22;7557;51.698;3.942;2022-08-21T10:06:22;24.70;98.50
9223;DHT22;7557;51.698;3.942;2022-08-21T10:08:49;25.00;97.90
9223;DHT22;7557;51.698;3.942;2022-08-21T10:11:17;25.10;97.70
9223;DHT22;7557;51.698;3.942;2022-08-21T10:13:57;25.10;97.70
9223;DHT22;7557;51.698;3.942;2022-08-21T10:16:35;25.00;97.90
9223;DHT22;7557;51.698;3.942;2022-08-21T10:19:15;25.00;97.70
9223;DHT22;7557;51.698;3.942;2022-08-21T10:21:58;24.90;97.90
9223;DHT22;7557;51.698;3.942;2022-08-21T10:24:30;24.80;98.00
9223;DHT22;7557;51.698;3.942;2022-08-21T10:27:06;24.70;98.30
9223;DHT22;7557;51.698;3.942;2022-08-21T10:29:47;24.70;98.40
9223;DHT22;7557;51.698;3.942;2022-08-21T10:32:31;24.90;98.30
9223;DHT22;7557;51.698;3.942;2022-08-21T10:35:10;25.00;97.90
9223;DHT22;7557;51.698;3.942;2022-08-21T10:37:58;25.00;97.80
9223;DHT22;7557;51.698;3.942;2022-08-21T10:40:31;24.90;97.40
9223;DHT22;7557;51.698;3.942;2022-08-21T10:43:16;24.80;97.20
9223;DHT22;7557;51.698;3.942;2022-08-21T10:45:55;24.80;97.30
9223;DHT22;7557;51.698;3.942;2022-08-21T10:48:29;24.80;97.20
9223;DHT22;7557;51.698;3.942;2022-08-21T10:51:06;24.90;97.60
9223;DHT22;7557;51.698;3.942;2022-08-21T10:53:50;25.00;97.10
9223;DHT22;7557;51.698;3.942;2022-08-21T10:56:23;24.90;97.20
9223;DHT22;7557;51.698;3.942;2022-08-21T10:59:02;25.00;97.50
9223;DHT22;7557;51.698;3.942;2022-08-21T11:01:42;25.20;97.40
9223;DHT22;7557;51.698;3.942;2022-08-21T11:04:13;25.30;97.20
9223;DHT22;7557;51.698;3.942;2022-08-21T11:06:49;25.30;97.20
9223;DHT22;7557;51.698;3.942;2022-08-21T11:09:21;25.50;96.90
9223;DHT22;7557;51.698;3.942;2022-08-21T11:11:54;25.50;96.60
9223;DHT22;7557;51.698;3.942;2022-08-21T11:14:29;25.30;96.40
9223;DHT22;7557;51.698;3.942;2022-08-21T11:17:02;25.10;96.70
9223;DHT22;7557;51.698;3.942;2022-08-21T11:19:36;25.00;97.00
9223;DHT22;7557;51.698;3.942;2022-08-21T11:22:13;25.10;97.10
9223;DHT22;7557;51.698;3.942;2022-08-21T11:24:46;25.20;97.00
9223;DHT22;7557;51.698;3.942;2022-08-21T11:27:21;25.20;97.00
9223;DHT22;7557;51.698;3.942;2022-08-21T11:29:52;25.20;97.10
9223;DHT22;7557;51.698;3.942;2022-08-21T11:32:34;25.20;97.30
9223;DHT22;7557;51.698;3.942;2022-08-21T11:35:09;25.30;97.30
9223;DHT22;7557;51.698;3.942;2022-08-21T11:38:01;25.30;97.00
9223;DHT22;7557;51.698;3.942;2022-08-21T11:40:44;25.30;96.80
9223;DHT22;7557;51.698;3.942;2022-08-21T11:43:21;25.30;97.00
9223;DHT22;7557;51.698;3.942;2022-08-21T11:45:52;25.30;96.70
9223;DHT22;7557;51.698;3.942;2022-08-21T11:48:32;25.30;96.50
9223;DHT22;7557;51.698;3.942;2022-08-21T11:51:04;25.20;96.20
9223;DHT22;7557;51.698;3.942;2022-08-21T11:53:38;25.20;95.30
9223;DHT22;7557;51.698;3.942;2022-08-21T11:56:11;25.10;95.50
9223;DHT22;7557;51.698;3.942;2022-08-21T11:58:42;25.10;95.20
9223;DHT22;7557;51.698;3.942;2022-08-21T12:01:15;25.20;95.60
9223;DHT22;7557;51.698;3.942;2022-08-21T12:03:52;25.10;95.30
9223;DHT22;7557;51.698;3.942;2022-08-21T12:06:30;25.10;96.10
9223;DHT22;7557;51.698;3.942;2022-08-21T12:09:01;25.10;96.10
9223;DHT22;7557;51.698;3.942;2022-08-21T12:11:29;25.20;95.90
9223;DHT22;7557;51.698;3.942;2022-08-21T12:13:59;25.20;95.70
9223;DHT22;7557;51.698;3.942;2022-08-21T12:16:31;25.20;95.10
9223;DHT22;7557;51.698;3.942;2022-08-21T12:19:07;25.20;95.40
9223;DHT22;7557;51.698;3.942;2022-08-21T12:21:49;25.30;95.20
9223;DHT22;7557;51.698;3.942;2022-08-21T12:24:32;25.30;94.50
9223;DHT22;7557;51.698;3.942;2022-08-21T12:27:12;25.40;94.90
9223;DHT22;7557;51.698;3.942;2022-08-21T12:29:45;25.50;94.90
9223;DHT22;7557;51.698;3.942;2022-08-21T12:32:24;25.50;95.10
9223;DHT22;7557;51.698;3.942;2022-08-21T12:34:55;25.60;94.90
9223;DHT22;7557;51.698;3.942;2022-08-21T12:37:27;25.40;95.20
9223;DHT22;7557;51.698;3.942;2022-08-21T12:39:59;25.30;94.90
9223;DHT22;7557;51.698;3.942;2022-08-21T12:42:33;25.30;95.30
9223;DHT22;7557;51.698;3.942;2022-08-21T12:45:14;25.30;95.70
9223;DHT22;7557;51.698;3.942;2022-08-21T12:47:48;25.20;96.10
9223;DHT22;7557;51.698;3.942;2022-08-21T12:50:20;25.20;96.10
9223;DHT22;7557;51.698;3.942;2022-08-21T12:52:57;25.00;96.10
9223;DHT22;7557;51.698;3.942;2022-08-21T12:55:31;25.00;96.40
9223;DHT22;7557;51.698;3.942;2022-08-21T12:57:59;24.80;96.50
9223;DHT22;7557;51.698;3.942;2022-08-21T13:00:29;24.80;96.80
9223;DHT22;7557;51.698;3.942;2022-08-21T13:02:56;24.70;96.80
9223;DHT22;7557;51.698;3.942;2022-08-21T13:05:29;24.70;96.80
9223;DHT22;7557;51.698;3.942;2022-08-21T13:07:58;24.80;96.60
9223;DHT22;7557;51.698;3.942;2022-08-21T13:10:29;24.70;96.70
9223;DHT22;7557;51.698;3.942;2022-08-21T13:13:00;24.60;96.30
9223;DHT22;7557;51.698;3.942;2022-08-21T13:15:31;24.60;96.40
9223;DHT22;7557;51.698;3.942;2022-08-21T13:18:00;24.50;96.50
9223;DHT22;7557;51.698;3.942;2022-08-21T13:20:30;24.50;96.60
9223;DHT22;7557;51.698;3.942;2022-08-21T13:23:00;24.40;96.60
9223;DHT22;7557;51.698;3.942;2022-08-21T13:25:35;24.40;96.80
9223;DHT22;7557;51.698;3.942;2022-08-21T13:28:06;24.40;96.80
9223;DHT22;7557;51.698;3.942;2022-08-21T13:30:37;24.40;96.90
9223;DHT22;7557;51.698;3.942;2022-08-21T13:33:06;24.40;96.80
9223;DHT22;7557;51.698;3.942;2022-08-21T13:35:45;24.40;96.80
9223;DHT22;7557;51.698;3.942;2022-08-21T13:38:14;24.40;97.20
9223;DHT22;7557;51.698;3.942;2022-08-21T13:40:48;24.40;97.30
9223;DHT22;7557;51.698;3.942;2022-08-21T13:43:18;24.40;97.30
9223;DHT22;7557;51.698;3.942;2022-08-21T13:45:49;24.50;97.10
9223;DHT22;7557;51.698;3.942;2022-08-21T13:48:16;24.50;97.00
9223;DHT22;7557;51.698;3.942;2022-08-21T13:50:44;24.50;97.20
9223;DHT22;7557;51.698;3.942;2022-08-21T13:53:22;24.50;97.20
9223;DHT22;7557;51.698;3.942;2022-08-21T13:55:51;24.60;96.70
9223;DHT22;7557;51.698;3.942;2022-08-21T13:58:25;24.60;96.40
9223;DHT22;7557;51.698;3.942;2022-08-21T14:00:53;24.70;96.30
9223;DHT22;7557;51.698;3.942;2022-08-21T14:03:33;24.70;96.10
9223;DHT22;7557;51.698;3.942;2022-08-21T14:06:01;24.70;96.30
9223;DHT22;7557;51.698;3.942;2022-08-21T14:08:32;24.70;95.90
9223;DHT22;7557;51.698;3.942;2022-08-21T14:11:04;24.80;95.40
9223;DHT22;7557;51.698;3.942;2022-08-21T14:13:38;24.80;95.30
9223;DHT22;7557;51.698;3.942;2022-08-21T14:16:15;24.90;95.00
9223;DHT22;7557;51.698;3.942;2022-08-21T14:18:48;25.00;95.20
9223;DHT22;7557;51.698;3.942;2022-08-21T14:21:27;25.00;94.90
9223;DHT22;7557;51.698;3.942;2022-08-21T14:24:08;25.00;94.70
9223;DHT22;7557;51.698;3.942;2022-08-21T14:26:44;25.10;94.70
9223;DHT22;7557;51.698;3.942;2022-08-21T14:29:14;25.10;94.80
9223;DHT22;7557;51.698;3.942;2022-08-21T14:31:42;25.00;94.90
9223;DHT22;7557;51.698;3.942;2022-08-21T14:34:11;25.00;94.50
9223;DHT22;7557;51.698;3.942;2022-08-21T14:36:42;25.10;94.40
9223;DHT22;7557;51.698;3.942;2022-08-21T14:39:10;25.10;94.30
9223;DHT22;7557;51.698;3.942;2022-08-21T14:41:39;25.20;94.10
9223;DHT22;7557;51.698;3.942;2022-08-21T14:44:07;25.30;93.90
9223;DHT22;7557;51.698;3.942;2022-08-21T14:46:36;25.50;94.20
9223;DHT22;7557;51.698;3.942;2022-08-21T14:49:04;25.50;94.60
9223;DHT22;7557;51.698;3.942;2022-08-21T14:51:31;25.50;94.60
9223;DHT22;7557;51.698;3.942;2022-08-21T14:53:59;25.60;94.40
9223;DHT22;7557;51.698;3.942;2022-08-21T14:56:26;25.70;93.90
9223;DHT22;7557;51.698;3.942;2022-08-21T14:58:59;25.80;93.80
9223;DHT22;7557;51.698;3.942;2022-08-21T15:01:29;25.90;93.50
9223;DHT22;7557;51.698;3.942;2022-08-21T15:03:56;25.90;93.70
9223;DHT22;7557;51.698;3.942;2022-08-21T15:06:23;25.90;93.50
9223;DHT22;7557;51.698;3.942;2022-08-21T15:08:51;25.80;93.50
9223;DHT22;7557;51.698;3.942;2022-08-21T15:11:20;25.80;93.50
9223;DHT22;7557;51.698;3.942;2022-08-21T15:13:53;25.70;93.30
9223;DHT22;7557;51.698;3.942;2022-08-21T15:16:24;25.70;93.10
9223;DHT22;7557;51.698;3.942;2022-08-21T15:18:51;25.60;92.90
9223;DHT22;7557;51.698;3.942;2022-08-21T15:21:18;25.50;92.90
9223;DHT22;7557;51.698;3.942;2022-08-21T15:23:45;25.40;93.10
9223;DHT22;7557;51.698;3.942;2022-08-21T15:26:13;25.30;93.00
9223;DHT22;7557;51.698;3.942;2022-08-21T15:28:40;25.20;93.00
9223;DHT22;7557;51.698;3.942;2022-08-21T15:31:08;25.00;93.00
9223;DHT22;7557;51.698;3.942;2022-08-21T15:33:36;24.90;93.00
9223;DHT22;7557;51.698;3.942;2022-08-21T15:36:04;24.90;93.00
9223;DHT22;7557;51.698;3.942;2022-08-21T15:38:31;24.80;93.00
9223;DHT22;7557;51.698;3.942;2022-08-21T15:40:59;24.80;93.00
9223;DHT22;7557;51.698;3.942;2022-08-21T15:43:28;24.70;93.10
9223;DHT22;7557;51.698;3.942;2022-08-21T15:45:58;24.80;93.10
9223;DHT22;7557;51.698;3.942;2022-08-21T15:48:26;24.70;93.00
9223;DHT22;7557;51.698;3.942;2022-08-21T15:50:55;24.70;93.00
9223;DHT22;7557;51.698;3.942;2022-08-21T15:53:22;24.60;93.00
9223;DHT22;7557;51.698;3.942;2022-08-21T15:55:49;24.60;93.00
9223;DHT22;7557;51.698;3.942;2022-08-21T15:58:17;24.60;92.90
9223;DHT22;7557;51.698;3.942;2022-08-21T16:00:46;24.50;92.90
9223;DHT22;7557;51.698;3.942;2022-08-21T16:03:15;24.40;93.00
9223;DHT22;7557;51.698;3.942;2022-08-21T16:05:47;24.40;93.00
9223;DHT22;7557;51.698;3.942;2022-08-21T16:08:19;24.40;93.10
9223;DHT22;7557;51.698;3.942;2022-08-21T16:10:47;24.40;93.30
9223;DHT22;7557;51.698;3.942;2022-08-21T16:13:20;24.30;93.30
9223;DHT22;7557;51.698;3.942;2022-08-21T16:15:50;24.30;93.30
9223;DHT22;7557;51.698;3.942;2022-08-21T16:18:18;24.30;93.50
9223;DHT22;7557;51.698;3.942;2022-08-21T16:20:48;24.20;93.80
9223;DHT22;7557;51.698;3.942;2022-08-21T16:23:15;24.30;93.80